Time;durP1;ratioP1;P1;durP2;ratioP2;P2;SDS_P1;SDS_P2;PMS_P1;PMS_P2;Temp;Humidity;BMP_temperature;BMP_pressure;BME280_temperature;BME280_humidity;BME280_pressure;Samples;Min_cycle;Max_cycle;Signal;HPM_P1;HPM_P2
2024/01/04 00:00:09;;;;;;;1.13;0.70;;;6.50;98.10;;;;;;5002602;28;20060;-73
2024/01/04 00:02:34;;;;;;;1.65;0.93;;;6.50;98.00;;;;;;4981254;28;20054;-72
2024/01/04 00:05:00;;;;;;;1.77;0.95;;;6.50;97.80;;;;;;4995376;28;20080;-73
2024/01/04 00:07:25;;;;;;;1.55;0.88;;;6.50;97.70;;;;;;5005222;28;20129;-72
2024/01/04 00:09:51;;;;;;;1.15;0.90;;;6.50;97.70;;;;;;4995191;28;20360;-72
2024/01/04 00:12:17;;;;;;;1.55;0.98;;;6.50;97.70;;;;;;5004262;28;20377;-73
2024/01/04 00:14:43;;;;;;;1.52;0.90;;;6.50;97.80;;;;;;5000546;28;20044;-73
2024/01/04 00:17:09;;;;;;;3.13;1.08;;;6.40;97.80;;;;;;4987211;28;20030;-73
2024/01/04 00:19:34;;;;;;;1.67;0.93;;;6.40;97.70;;;;;;5001783;28;20026;-73
2024/01/04 00:21:59;;;;;;;1.52;0.90;;;6.40;97.70;;;;;;4996665;28;20479;-73
2024/01/04 00:24:25;;;;;;;1.27;0.63;;;6.40;97.80;;;;;;4990651;28;20042;-73
2024/01/04 00:26:50;;;;;;;1.08;0.60;;;6.30;98.00;;;;;;4991611;28;20037;-72
2024/01/04 00:29:16;;;;;;;0.70;0.60;;;6.30;98.10;;;;;;4999363;28;20187;-73
2024/01/04 00:31:42;;;;;;;2.33;0.82;;;6.30;98.10;;;;;;4992762;28;20380;-73
2024/01/04 00:34:08;;;;;;;1.15;0.70;;;6.30;98.10;;;;;;4979442;28;20031;-73
2024/01/04 00:36:34;;;;;;;1.15;0.55;;;6.40;98.20;;;;;;4994999;28;20463;-73
2024/01/04 00:38:59;;;;;;;0.60;0.40;;;6.30;98.50;;;;;;4998869;28;20364;-73
2024/01/04 00:41:25;;;;;;;0.82;0.80;;;6.20;98.70;;;;;;4993739;28;20473;-72
2024/01/04 00:43:50;;;;;;;0.68;0.30;;;5.90;98.40;;;;;;4989112;28;20375;-75
2024/01/04 00:46:16;;;;;;;0.60;0.40;;;5.70;98.20;;;;;;4995226;28;20561;-72
2024/01/04 00:48:42;;;;;;;0.45;0.30;;;5.60;98.40;;;;;;5001283;28;20553;-73
2024/01/04 00:51:07;;;;;;;0.55;0.30;;;5.60;98.60;;;;;;4997840;28;20038;-73
2024/01/04 00:53:33;;;;;;;0.70;0.40;;;5.50;98.50;;;;;;4993189;28;20346;-75
2024/01/04 00:55:58;;;;;;;2.40;0.50;;;5.50;98.40;;;;;;4980479;28;20034;-72
2024/01/04 00:58:24;;;;;;;0.10;0.10;;;5.40;98.40;;;;;;4989259;28;20037;-73
2024/01/04 01:00:49;;;;;;;0.85;0.40;;;5.40;98.30;;;;;;4997376;28;20452;-74
2024/01/04 01:03:15;;;;;;;0.55;0.30;;;5.40;98.10;;;;;;4995891;28;20465;-73
2024/01/04 01:05:40;;;;;;;0.95;0.32;;;5.40;98.10;;;;;;4999257;28;20144;-72
2024/01/04 01:08:06;;;;;;;0.43;0.40;;;5.30;97.90;;;;;;4994399;28;20030;-73
2024/01/04 01:10:34;;;;;;;0.75;0.52;;;5.40;97.90;;;;;;4993790;28;20042;-75
2024/01/04 01:13:00;;;;;;;0.32;0.32;;;5.40;98.10;;;;;;4996473;28;20431;-73
2024/01/04 01:15:25;;;;;;;2.63;0.60;;;5.30;98.00;;;;;;4999018;28;20085;-73
2024/01/04 01:17:51;;;;;;;0.40;0.40;;;5.40;98.10;;;;;;4998951;28;20030;-73
2024/01/04 01:20:16;;;;;;;0.68;0.30;;;5.30;98.10;;;;;;5002455;28;20092;-73
2024/01/04 01:22:41;;;;;;;6.82;0.75;;;5.30;98.10;;;;;;5003072;28;20053;-73
2024/01/04 01:25:07;;;;;;;0.75;0.47;;;5.30;97.80;;;;;;4981289;28;20053;-73
2024/01/04 01:27:32;;;;;;;1.08;0.30;;;5.30;97.50;;;;;;5006047;28;20029;-74
2024/01/04 01:29:58;;;;;;;0.95;0.50;;;5.30;97.80;;;;;;5003927;28;20037;-73
2024/01/04 01:32:23;;;;;;;0.20;0.20;;;5.10;98.10;;;;;;5005992;28;20058;-72
2024/01/04 01:34:49;;;;;;;0.45;0.20;;;4.90;98.60;;;;;;5006248;28;20034;-73
2024/01/04 01:37:15;;;;;;;0.35;0.20;;;4.80;99.00;;;;;;5001595;28;20109;-73
2024/01/04 01:39:41;;;;;;;1.50;0.50;;;4.60;99.30;;;;;;4999885;28;20018;-74
2024/01/04 01:42:06;;;;;;;0.38;0.30;;;4.60;99.20;;;;;;4998543;28;20182;-74
2024/01/04 01:44:32;;;;;;;0.28;0.25;;;4.60;99.10;;;;;;4991977;28;20062;-73
2024/01/04 01:46:57;;;;;;;0.32;0.28;;;4.50;98.60;;;;;;5005224;28;20109;-74
2024/01/04 01:49:23;;;;;;;0.30;0.30;;;4.50;98.60;;;;;;4990818;28;20050;-73
2024/01/04 01:51:48;;;;;;;0.40;0.40;;;4.50;98.20;;;;;;5001328;28;20029;-73
2024/01/04 01:54:14;;;;;;;0.10;0.10;;;4.50;97.90;;;;;;4999466;28;20173;-73
2024/01/04 01:56:39;;;;;;;0.45;0.25;;;4.50;97.90;;;;;;5001534;28;20137;-75
2024/01/04 01:59:07;;;;;;;0.20;0.20;;;4.50;97.50;;;;;;4988682;28;20034;-72
2024/01/04 02:01:32;;;;;;;0.30;0.20;;;4.50;97.50;;;;;;4993625;28;20081;-73
2024/01/04 02:03:58;;;;;;;0.32;0.20;;;4.60;97.60;;;;;;4993990;28;20034;-73
2024/01/04 02:06:23;;;;;;;0.20;0.20;;;4.60;97.40;;;;;;5001670;28;20100;-73
2024/01/04 02:08:49;;;;;;;0.88;0.30;;;4.50;97.30;;;;;;4992451;28;20074;-73
2024/01/04 02:11:18;;;;;;;0.55;0.28;;;4.60;97.20;;;;;;4991464;28;20439;-73
2024/01/04 02:13:43;;;;;;;0.43;0.30;;;4.60;96.50;;;;;;4993112;28;20486;-75
2024/01/04 02:16:09;;;;;;;0.40;0.40;;;4.60;96.40;;;;;;4996572;28;20117;-73
2024/01/04 02:18:34;;;;;;;0.65;0.43;;;4.60;96.00;;;;;;5003732;28;20110;-73
2024/01/04 02:21:01;;;;;;;0.30;0.30;;;4.60;95.30;;;;;;5001146;28;20164;-73
2024/01/04 02:23:26;;;;;;;0.20;0.20;;;4.60;94.90;;;;;;4994492;28;20411;-74
2024/01/04 02:25:52;;;;;;;0.15;0.15;;;4.60;94.90;;;;;;4993322;28;20052;-72
2024/01/04 02:28:18;;;;;;;0.55;0.40;;;4.60;95.20;;;;;;4991632;28;20036;-75
2024/01/04 02:30:44;;;;;;;0.28;0.20;;;4.60;95.40;;;;;;4994275;28;20343;-73
2024/01/04 02:33:09;;;;;;;0.20;0.20;;;4.60;94.70;;;;;;4997874;28;20102;-73
2024/01/04 02:35:34;;;;;;;0.38;0.35;;;4.60;93.90;;;;;;5002671;28;20049;-73
2024/01/04 02:38:00;;;;;;;0.20;0.20;;;4.60;93.20;;;;;;4998676;28;20034;-73
2024/01/04 02:40:25;;;;;;;0.20;0.10;;;4.60;94.00;;;;;;4999595;28;20040;-74
2024/01/04 02:42:51;;;;;;;1.65;0.30;;;4.60;93.20;;;;;;4998266;28;20026;-74
2024/01/04 02:45:16;;;;;;;0.10;0.10;;;4.60;94.10;;;;;;4999053;28;20473;-73
2024/01/04 02:47:42;;;;;;;0.20;0.20;;;4.60;93.10;;;;;;4983305;28;20069;-73
2024/01/04 02:50:08;;;;;;;0.10;0.10;;;4.60;93.60;;;;;;4998130;28;20454;-74
2024/01/04 02:52:34;;;;;;;0.45;0.22;;;4.50;93.40;;;;;;4979609;28;20149;-73
2024/01/04 02:54:59;;;;;;;0.35;0.30;;;4.50;93.40;;;;;;4994236;28;20129;-72
2024/01/04 02:57:25;;;;;;;0.28;0.28;;;4.40;93.80;;;;;;4999480;28;20454;-74
2024/01/04 02:59:50;;;;;;;0.20;0.20;;;4.40;93.50;;;;;;4992310;28;20077;-73
2024/01/04 03:02:16;;;;;;;0.47;0.30;;;4.40;93.60;;;;;;5006886;28;20521;-73
2024/01/04 03:04:42;;;;;;;0.30;0.30;;;4.40;93.60;;;;;;5000289;28;20034;-73
2024/01/04 03:07:08;;;;;;;0.47;0.47;;;4.30;93.20;;;;;;4996731;28;20038;-73
2024/01/04 03:09:33;;;;;;;0.32;0.25;;;4.30;93.20;;;;;;4992617;28;20458;-74
2024/01/04 03:11:59;;;;;;;0.65;0.40;;;4.30;93.60;;;;;;5000760;28;20149;-73
2024/01/04 03:14:24;;;;;;;0.22;0.22;;;4.20;94.10;;;;;;4999606;28;20118;-73
2024/01/04 03:16:50;;;;;;;0.30;0.30;;;4.10;94.90;;;;;;4995266;28;20105;-73
2024/01/04 03:19:15;;;;;;;0.20;0.20;;;4.00;95.00;;;;;;5000228;28;20040;-74
2024/01/04 03:21:41;;;;;;;0.55;0.30;;;4.00;95.80;;;;;;4993153;28;20366;-72
2024/01/04 03:24:06;;;;;;;0.20;0.20;;;3.90;95.50;;;;;;4995161;28;20046;-74
2024/01/04 03:26:32;;;;;;;0.17;0.17;;;3.90;95.80;;;;;;5004132;28;20332;-73
2024/01/04 03:28:57;;;;;;;0.20;0.17;;;3.90;96.10;;;;;;4980358;28;20438;-73
2024/01/04 03:31:23;;;;;;;0.30;0.30;;;3.90;96.40;;;;;;5004652;28;20434;-72
2024/01/04 03:33:49;;;;;;;1.05;0.38;;;3.80;96.70;;;;;;5003535;28;20036;-74
2024/01/04 03:36:15;;;;;;;0.20;0.17;;;3.80;97.00;;;;;;5003418;28;20026;-74
2024/01/04 03:38:41;;;;;;;1.60;0.30;;;3.80;97.20;;;;;;4996414;28;20108;-73
2024/01/04 03:41:07;;;;;;;0.60;0.30;;;3.80;97.20;;;;;;5003966;28;20522;-73
2024/01/04 03:43:33;;;;;;;0.30;0.30;;;3.70;97.40;;;;;;5001120;28;20026;-73
2024/01/04 03:45:58;;;;;;;0.30;0.30;;;3.70;97.60;;;;;;4990334;28;20050;-73
2024/01/04 03:48:24;;;;;;;0.10;0.10;;;3.60;97.50;;;;;;5000390;28;20038;-73
2024/01/04 03:50:49;;;;;;;0.30;0.30;;;3.60;97.80;;;;;;4998187;28;20122;-73
2024/01/04 03:53:14;;;;;;;1.35;0.35;;;3.50;97.50;;;;;;4998028;28;20034;-75
2024/01/04 03:55:40;;;;;;;0.22;0.22;;;3.60;97.70;;;;;;4978210;28;20442;-73
2024/01/04 03:58:05;;;;;;;0.20;0.20;;;3.50;97.50;;;;;;4992240;28;20117;-73
2024/01/04 04:00:31;;;;;;;0.55;0.40;;;3.50;97.30;;;;;;4994396;28;20113;-73
2024/01/04 04:02:57;;;;;;;0.30;0.30;;;3.50;97.20;;;;;;4991435;28;20053;-73
2024/01/04 04:05:22;;;;;;;0.43;0.30;;;3.50;96.50;;;;;;4995643;28;20536;-73
2024/01/04 04:07:48;;;;;;;0.30;0.30;;;3.50;96.50;;;;;;4996192;28;20034;-73
2024/01/04 04:10:14;;;;;;;0.22;0.22;;;3.50;96.20;;;;;;4992954;28;20224;-72
2024/01/04 04:12:40;;;;;;;0.20;0.20;;;3.50;96.10;;;;;;4991659;28;20026;-74
2024/01/04 04:15:05;;;;;;;0.30;0.30;;;3.50;95.50;;;;;;4994328;28;20042;-72
2024/01/04 04:17:31;;;;;;;0.32;0.32;;;3.40;95.30;;;;;;4997159;28;20069;-73
2024/01/04 04:19:56;;;;;;;0.77;0.32;;;3.40;95.60;;;;;;4996455;28;20469;-73
2024/01/04 04:22:22;;;;;;;0.82;0.70;;;3.40;95.90;;;;;;5001055;28;20046;-72
2024/01/04 04:24:47;;;;;;;0.50;0.40;;;3.40;95.90;;;;;;4990239;28;20111;-74
2024/01/04 04:27:13;;;;;;;1.95;0.30;;;3.30;95.60;;;;;;4996783;28;20042;-72
2024/01/04 04:29:40;;;;;;;1.15;0.65;;;3.30;95.90;;;;;;4997468;28;20120;-73
2024/01/04 04:32:06;;;;;;;0.40;0.40;;;3.20;96.30;;;;;;4999729;28;20115;-74
2024/01/04 04:34:32;;;;;;;0.30;0.20;;;3.20;96.20;;;;;;5001802;28;20078;-73
2024/01/04 04:36:57;;;;;;;0.52;0.38;;;3.10;95.90;;;;;;4997029;28;20108;-73
2024/01/04 04:39:23;;;;;;;0.28;0.28;;;3.10;96.00;;;;;;4999162;28;20027;-72
2024/01/04 04:41:48;;;;;;;0.88;0.45;;;3.10;95.60;;;;;;4993337;28;20042;-72
2024/01/04 04:44:14;;;;;;;0.73;0.47;;;3.10;95.20;;;;;;4991762;28;20030;-72
2024/01/04 04:46:39;;;;;;;1.05;0.40;;;3.10;95.70;;;;;;4997041;28;20447;-72
2024/01/04 04:49:07;;;;;;;1.48;0.50;;;3.00;95.40;;;;;;5000091;28;20033;-73
2024/01/04 04:51:32;;;;;;;1.13;0.55;;;3.10;95.50;;;;;;4996041;28;20362;-75
2024/01/04 04:53:58;;;;;;;0.45;0.20;;;3.00;95.40;;;;;;4984874;28;20034;-73
2024/01/04 04:56:24;;;;;;;1.42;0.32;;;3.00;95.60;;;;;;5002218;28;20429;-73
2024/01/04 04:58:49;;;;;;;0.75;0.45;;;3.00;95.40;;;;;;4988217;28;20045;-72
2024/01/04 05:01:15;;;;;;;0.30;0.30;;;3.00;95.00;;;;;;4994595;28;20146;-72
2024/01/04 05:03:40;;;;;;;1.08;0.47;;;3.00;95.40;;;;;;4992945;28;20049;-73
2024/01/04 05:06:08;;;;;;;0.50;0.50;;;2.90;95.30;;;;;;4997795;28;20525;-72
2024/01/04 05:08:33;;;;;;;0.77;0.22;;;2.90;94.90;;;;;;5001103;28;20026;-73
2024/01/04 05:10:59;;;;;;;0.30;0.30;;;2.80;94.60;;;;;;4995276;28;20103;-73
2024/01/04 05:13:25;;;;;;;0.20;0.20;;;2.80;94.80;;;;;;4995302;28;20044;-72
2024/01/04 05:15:50;;;;;;;0.75;0.40;;;2.80;94.40;;;;;;4996703;28;20062;-74
2024/01/04 05:18:16;;;;;;;0.20;0.20;;;2.80;94.10;;;;;;4994914;28;20052;-72
2024/01/04 05:20:41;;;;;;;1.83;0.40;;;2.70;94.10;;;;;;4993108;28;20069;-72
2024/01/04 05:23:07;;;;;;;1.45;0.60;;;2.70;94.00;;;;;;4993907;28;20035;-72
2024/01/04 05:25:33;;;;;;;0.20;0.20;;;2.60;93.80;;;;;;4992583;28;20331;-71
2024/01/04 05:27:59;;;;;;;1.25;0.38;;;2.60;94.10;;;;;;4988683;28;20093;-72
2024/01/04 05:30:24;;;;;;;0.20;0.20;;;2.60;93.90;;;;;;4991379;28;20093;-72
2024/01/04 05:32:50;;;;;;;0.20;0.20;;;2.60;94.10;;;;;;4988807;28;20027;-72
2024/01/04 05:35:15;;;;;;;0.30;0.30;;;2.60;94.20;;;;;;4991550;28;20343;-73
2024/01/04 05:37:41;;;;;;;0.30;0.25;;;2.60;94.60;;;;;;4989614;28;20029;-72
2024/01/04 05:40:07;;;;;;;0.40;0.32;;;2.60;94.60;;;;;;4972793;28;20026;-73
2024/01/04 05:42:32;;;;;;;0.80;0.40;;;2.60;94.80;;;;;;5000744;28;20101;-72
2024/01/04 05:44:58;;;;;;;0.20;0.20;;;2.50;95.10;;;;;;4996124;28;20138;-73
2024/01/04 05:47:23;;;;;;;2.55;0.30;;;2.60;95.00;;;;;;5002017;28;20029;-72
2024/01/04 05:49:49;;;;;;;0.30;0.30;;;2.40;94.50;;;;;;4999567;28;20042;-73
2024/01/04 05:52:14;;;;;;;0.22;0.22;;;2.40;94.80;;;;;;4991191;28;20038;-73
2024/01/04 05:54:40;;;;;;;0.28;0.22;;;2.30;94.70;;;;;;4989198;28;20022;-74
2024/01/04 05:57:06;;;;;;;3.25;0.40;;;2.20;94.80;;;;;;4993271;28;20053;-72
2024/01/04 05:59:31;;;;;;;0.30;0.30;;;2.20;94.90;;;;;;4995379;28;20034;-72
2024/01/04 06:01:57;;;;;;;0.30;0.30;;;2.20;95.20;;;;;;4995456;28;20101;-74
2024/01/04 06:04:22;;;;;;;0.43;0.43;;;2.10;95.60;;;;;;4995806;28;20048;-73
2024/01/04 06:06:48;;;;;;;0.77;0.43;;;2.10;95.50;;;;;;4995548;28;20443;-73
2024/01/04 06:09:14;;;;;;;1.50;0.40;;;2.10;96.00;;;;;;4991006;28;20065;-73
2024/01/04 06:11:39;;;;;;;0.30;0.30;;;2.10;96.40;;;;;;5001064;28;20027;-74
2024/01/04 06:14:06;;;;;;;0.55;0.40;;;2.00;96.50;;;;;;4975178;28;20608;-73
2024/01/04 06:16:32;;;;;;;1.02;0.30;;;2.00;96.60;;;;;;4993648;28;20051;-73
2024/01/04 06:18:58;;;;;;;0.50;0.30;;;1.90;96.80;;;;;;4995960;28;20042;-73
2024/01/04 06:21:23;;;;;;;0.45;0.40;;;1.90;97.20;;;;;;4996068;28;20037;-73
2024/01/04 06:23:49;;;;;;;0.40;0.40;;;1.90;97.20;;;;;;4990389;28;20046;-72
2024/01/04 06:26:18;;;;;;;0.47;0.30;;;1.80;97.20;;;;;;4993904;28;20092;-72
2024/01/04 06:28:44;;;;;;;0.30;0.30;;;1.80;97.10;;;;;;4990229;28;20030;-73
2024/01/04 06:31:09;;;;;;;0.52;0.43;;;1.80;97.10;;;;;;4993983;28;20049;-72
2024/01/04 06:33:35;;;;;;;0.22;0.22;;;1.80;97.20;;;;;;4999020;28;20034;-73
2024/01/04 06:36:01;;;;;;;1.60;0.35;;;1.70;97.10;;;;;;4993892;28;20045;-72
2024/01/04 06:38:27;;;;;;;0.20;0.20;;;1.60;97.20;;;;;;4992643;28;20438;-72
2024/01/04 06:40:57;;;;;;;0.20;0.20;;;1.60;97.40;;;;;;4994962;28;20085;-72
2024/01/04 06:43:23;;;;;;;1.15;0.50;;;1.50;97.60;;;;;;4992804;28;20022;-73
2024/01/04 06:45:48;;;;;;;0.40;0.38;;;1.50;98.00;;;;;;4998338;28;20053;-73
2024/01/04 06:48:14;;;;;;;0.98;0.50;;;1.40;98.20;;;;;;4996310;28;20215;-73
2024/01/04 06:50:39;;;;;;;0.47;0.40;;;1.30;98.30;;;;;;4992274;28;20046;-72
2024/01/04 06:53:05;;;;;;;1.10;0.50;;;1.30;98.30;;;;;;4976508;28;20100;-72
2024/01/04 06:55:30;;;;;;;0.32;0.32;;;1.20;98.20;;;;;;4993937;28;20426;-72
2024/01/04 06:57:56;;;;;;;0.68;0.50;;;1.20;98.20;;;;;;4993535;28;20933;-73
2024/01/04 07:00:23;;;;;;;0.70;0.70;;;1.20;98.10;;;;;;4994064;28;20120;-72
2024/01/04 07:02:48;;;;;;;1.50;0.52;;;1.20;98.20;;;;;;4999105;28;20031;-72
2024/01/04 07:05:14;;;;;;;0.40;0.40;;;1.10;97.80;;;;;;4996934;28;20078;-72
2024/01/04 07:07:39;;;;;;;3.55;0.52;;;1.20;97.80;;;;;;5002437;28;20086;-74
2024/01/04 07:10:05;;;;;;;0.40;0.40;;;1.20;97.70;;;;;;4995591;28;20058;-72
2024/01/04 07:12:32;;;;;;;0.90;0.45;;;1.10;97.60;;;;;;4996724;28;20047;-73
2024/01/04 07:14:57;;;;;;;0.10;0.10;;;1.10;97.60;;;;;;4994243;28;20375;-72
2024/01/04 07:17:23;;;;;;;0.40;0.40;;;1.10;97.60;;;;;;4997736;28;20026;-72
2024/01/04 07:19:49;;;;;;;1.83;0.70;;;1.10;98.00;;;;;;4998983;28;20026;-72
2024/01/04 07:22:15;;;;;;;0.47;0.45;;;1.10;97.80;;;;;;4994986;28;20053;-74
2024/01/04 07:24:41;;;;;;;0.43;0.38;;;1.10;98.10;;;;;;4997168;28;20371;-72
2024/01/04 07:27:08;;;;;;;1.15;0.80;;;1.00;98.10;;;;;;4995622;28;20320;-74
2024/01/04 07:29:34;;;;;;;0.50;0.50;;;1.00;98.20;;;;;;4996280;28;20037;-73
2024/01/04 07:31:59;;;;;;;0.73;0.60;;;1.00;98.30;;;;;;4999717;28;20451;-73
2024/01/04 07:34:26;;;;;;;0.85;0.68;;;0.90;98.40;;;;;;4999710;28;20086;-72
2024/01/04 07:36:51;;;;;;;1.10;0.70;;;0.80;98.30;;;;;;4997457;28;20109;-72
2024/01/04 07:39:17;;;;;;;2.00;0.93;;;0.80;98.00;;;;;;4999001;28;20044;-74
2024/01/04 07:41:43;;;;;;;2.30;0.80;;;0.90;98.20;;;;;;5002604;28;20041;-73
2024/01/04 07:44:09;;;;;;;1.77;0.90;;;0.90;98.10;;;;;;5000292;28;20113;-73
2024/01/04 07:46:35;;;;;;;0.80;0.80;;;0.80;98.10;;;;;;4997248;28;20041;-72
2024/01/04 07:49:03;;;;;;;1.50;0.98;;;0.70;97.80;;;;;;4983626;28;20331;-72
2024/01/04 07:51:29;;;;;;;1.23;0.70;;;0.70;98.00;;;;;;4995129;28;20030;-72
2024/01/04 07:53:54;;;;;;;0.60;0.60;;;0.80;98.10;;;;;;4997972;28;20133;-73
2024/01/04 07:56:20;;;;;;;1.10;0.88;;;0.80;98.10;;;;;;4998513;28;20117;-73
2024/01/04 07:58:45;;;;;;;1.65;0.90;;;0.80;98.10;;;;;;4996815;28;20034;-74
2024/01/04 08:01:11;;;;;;;1.27;0.80;;;0.80;98.10;;;;;;5001251;28;20122;-72
2024/01/04 08:03:36;;;;;;;0.80;0.80;;;0.80;98.10;;;;;;4997691;28;20091;-72
2024/01/04 08:06:03;;;;;;;1.40;0.80;;;0.70;98.00;;;;;;4992218;28;20149;-71
2024/01/04 08:08:28;;;;;;;0.98;0.82;;;0.80;98.10;;;;;;4997281;28;20022;-72
2024/01/04 08:10:54;;;;;;;0.80;0.70;;;0.80;98.20;;;;;;5000057;28;20129;-71
2024/01/04 08:13:20;;;;;;;1.42;1.00;;;0.80;98.10;;;;;;4994900;28;20362;-72
2024/01/04 08:15:45;;;;;;;1.80;1.13;;;0.80;98.00;;;;;;4996056;28;20034;-72
2024/01/04 08:18:11;;;;;;;1.73;0.93;;;0.80;97.90;;;;;;4996284;28;20427;-72
2024/01/04 08:20:36;;;;;;;1.00;0.90;;;0.80;98.00;;;;;;4996557;28;20046;-72
2024/01/04 08:23:02;;;;;;;1.75;1.00;;;0.80;97.80;;;;;;4994395;28;20049;-72
2024/01/04 08:25:27;;;;;;;1.95;1.05;;;0.80;97.90;;;;;;4998839;28;20030;-72
2024/01/04 08:27:53;;;;;;;2.15;1.10;;;0.80;97.90;;;;;;4996754;28;20682;-72
2024/01/04 08:30:19;;;;;;;1.30;0.85;;;0.80;97.80;;;;;;4996611;28;20030;-74
2024/01/04 08:32:44;;;;;;;1.40;0.93;;;0.80;97.60;;;;;;5003911;28;20113;-72
2024/01/04 08:35:10;;;;;;;1.38;0.90;;;0.80;97.90;;;;;;4997181;28;20034;-73
2024/01/04 08:37:35;;;;;;;2.13;1.10;;;0.80;97.60;;;;;;4996092;28;20109;-73
2024/01/04 08:40:01;;;;;;;2.20;1.45;;;0.80;97.50;;;;;;4991156;28;20088;-71
2024/01/04 08:42:26;;;;;;;1.90;1.27;;;0.80;97.40;;;;;;5000409;28;20469;-73
2024/01/04 08:44:52;;;;;;;1.83;0.98;;;0.80;97.60;;;;;;5000292;28;20054;-72
2024/01/04 08:47:17;;;;;;;0.80;0.70;;;0.90;97.50;;;;;;5002038;28;20486;-72
2024/01/04 08:49:43;;;;;;;0.90;0.68;;;0.80;97.60;;;;;;4998935;28;20038;-72
2024/01/04 08:52:08;;;;;;;2.38;1.42;;;0.80;97.70;;;;;;4996589;28;20049;-73
2024/01/04 08:54:34;;;;;;;2.38;1.30;;;0.80;97.80;;;;;;5007799;28;20129;-71
2024/01/04 08:56:59;;;;;;;2.28;1.08;;;0.80;97.70;;;;;;4994177;28;20525;-72
2024/01/04 08:59:25;;;;;;;2.35;1.30;;;0.80;97.70;;;;;;4995876;28;20030;-72
2024/01/04 09:01:50;;;;;;;1.67;1.00;;;0.90;97.90;;;;;;4981338;28;20034;-72
2024/01/04 09:04:15;;;;;;;1.65;0.80;;;0.80;97.90;;;;;;4999906;28;20045;-73
2024/01/04 09:06:41;;;;;;;1.40;0.80;;;0.80;98.00;;;;;;4999877;28;20056;-73
2024/01/04 09:09:07;;;;;;;1.55;1.05;;;0.80;98.10;;;;;;5002727;28;20346;-73
2024/01/04 09:11:38;;;;;;;1.25;0.90;;;0.80;98.00;;;;;;5001539;28;20446;-72
2024/01/04 09:14:07;;;;;;;1.65;0.90;;;0.80;98.10;;;;;;4987443;28;20030;-73
2024/01/04 09:16:34;;;;;;;1.08;0.80;;;0.80;98.30;;;;;;4985690;28;20521;-72
2024/01/04 09:19:00;;;;;;;1.35;1.00;;;0.80;98.20;;;;;;5001955;28;20490;-71
2024/01/04 09:21:26;;;;;;;1.98;1.10;;;0.80;98.20;;;;;;4978395;28;20125;-71
2024/01/04 09:23:52;;;;;;;2.13;1.02;;;0.80;98.00;;;;;;4992716;28;20046;-74
2024/01/04 09:26:18;;;;;;;2.00;1.13;;;0.70;97.90;;;;;;5008640;28;20441;-74
2024/01/04 09:28:43;;;;;;;1.02;0.77;;;0.80;98.10;;;;;;4996261;28;20097;-73
2024/01/04 09:31:09;;;;;;;1.48;0.93;;;0.90;98.20;;;;;;4999810;28;20275;-76
2024/01/04 09:33:35;;;;;;;1.85;1.30;;;0.90;98.00;;;;;;4996838;28;20116;-74
2024/01/04 09:36:00;;;;;;;1.48;1.10;;;0.80;97.90;;;;;;5001553;28;20101;-73
2024/01/04 09:38:27;;;;;;;1.63;1.02;;;0.80;97.60;;;;;;4997225;28;20387;-73
2024/01/04 09:41:00;;;;;;;2.17;1.10;;;0.80;97.50;;;;;;4994164;28;20125;-73
2024/01/04 09:43:29;;;;;;;1.50;1.08;;;0.80;97.70;;;;;;4998327;28;20045;-74
2024/01/04 09:45:56;;;;;;;2.08;1.25;;;0.80;97.60;;;;;;5000422;28;20042;-72
2024/01/04 09:48:24;;;;;;;1.27;1.05;;;0.70;97.20;;;;;;5000976;28;20022;-74
2024/01/04 09:50:49;;;;;;;2.72;1.38;;;0.80;97.60;;;;;;4990511;28;20067;-71
2024/01/04 09:53:17;;;;;;;3.42;1.85;;;0.80;97.60;;;;;;4995573;28;20107;-72
2024/01/04 09:55:43;;;;;;;1.77;1.13;;;0.90;97.70;;;;;;5000257;28;20060;-73
2024/01/04 09:58:10;;;;;;;1.30;0.95;;;0.90;97.50;;;;;;4999206;28;20351;-70
2024/01/04 10:00:36;;;;;;;1.30;0.98;;;0.80;97.50;;;;;;4995139;28;20411;-73
2024/01/04 10:03:05;;;;;;;2.40;1.02;;;0.80;97.40;;;;;;4981607;28;20115;-73
2024/01/04 10:05:33;;;;;;;2.47;1.08;;;0.80;97.10;;;;;;5001690;28;20070;-72
2024/01/04 10:08:12;;;;;;;2.00;1.25;;;0.90;97.40;;;;;;5001293;28;20030;-73
2024/01/04 10:10:40;;;;;;;4.03;1.30;;;0.90;97.30;;;;;;4978523;28;20038;-73
2024/01/04 10:13:08;;;;;;;2.83;1.20;;;0.90;97.20;;;;;;4997360;28;20034;-72
2024/01/04 10:15:36;;;;;;;1.58;1.00;;;0.90;97.40;;;;;;5003659;28;20109;-73
2024/01/04 10:18:03;;;;;;;1.75;1.10;;;1.00;97.40;;;;;;4998705;28;20113;-73
2024/01/04 10:20:29;;;;;;;1.45;1.00;;;1.00;97.50;;;;;;5003596;28;20272;-73
2024/01/04 10:22:57;;;;;;;2.20;1.10;;;0.90;97.10;;;;;;5002934;28;20153;-74
2024/01/04 10:25:23;;;;;;;2.47;1.10;;;0.90;97.20;;;;;;5000294;28;20036;-73
2024/01/04 10:27:56;;;;;;;2.33;1.52;;;1.00;97.30;;;;;;4994153;28;20034;-70
2024/01/04 10:30:21;;;;;;;2.05;0.90;;;1.00;97.20;;;;;;4991428;28;20105;-70
2024/01/04 10:32:51;;;;;;;5.00;1.02;;;1.00;96.90;;;;;;4982937;28;20117;-71
2024/01/04 10:35:26;;;;;;;0.85;0.63;;;1.10;96.70;;;;;;4997002;28;20119;-68
2024/01/04 10:37:59;;;;;;;1.10;0.70;;;1.20;96.50;;;;;;5003322;28;20030;-71
2024/01/04 10:40:25;;;;;;;1.60;1.05;;;1.20;95.90;;;;;;4994474;28;20117;-71
2024/01/04 10:42:53;;;;;;;1.60;0.98;;;1.30;95.90;;;;;;4991581;28;20069;-70
2024/01/04 10:45:29;;;;;;;1.90;1.20;;;1.30;95.80;;;;;;5000409;28;20054;-70
2024/01/04 10:47:55;;;;;;;3.15;1.30;;;1.40;95.80;;;;;;4978977;28;20034;-70
2024/01/04 10:50:25;;;;;;;2.67;1.25;;;1.30;95.30;;;;;;4996844;28;20105;-70
2024/01/04 10:52:58;;;;;;;2.00;1.08;;;1.30;94.90;;;;;;4999723;28;20088;-70
2024/01/04 10:55:24;;;;;;;2.13;1.17;;;1.30;95.00;;;;;;5000744;28;20053;-70
2024/01/04 10:57:53;;;;;;;2.60;1.15;;;1.40;95.40;;;;;;5001472;28;20416;-71
2024/01/04 11:00:19;;;;;;;2.08;1.25;;;1.50;95.80;;;;;;4992916;28;20474;-70
2024/01/04 11:02:45;;;;;;;1.40;0.90;;;1.40;95.60;;;;;;5003561;28;20046;-70
2024/01/04 11:05:10;;;;;;;2.20;1.38;;;1.30;95.50;;;;;;5000875;28;20030;-71
2024/01/04 11:07:40;;;;;;;1.60;0.70;;;1.40;95.70;;;;;;4985254;28;20117;-70
2024/01/04 11:10:06;;;;;;;0.95;0.75;;;1.30;95.30;;;;;;4998245;28;20030;-71
2024/01/04 11:12:33;;;;;;;0.75;0.63;;;1.20;95.00;;;;;;4987992;28;20029;-71
2024/01/04 11:14:59;;;;;;;1.48;0.82;;;1.10;94.40;;;;;;4995902;28;20497;-70
2024/01/04 11:17:43;;;;;;;2.17;1.17;;;1.20;95.00;;;;;;4992493;28;20038;-72
2024/01/04 11:20:20;;;;;;;0.68;0.60;;;1.20;95.00;;;;;;5002658;28;20040;-71
2024/01/04 11:22:54;;;;;;;1.90;0.90;;;1.20;94.90;;;;;;5003420;28;20050;-71
2024/01/04 11:25:32;;;;;;;1.08;0.77;;;1.20;94.90;;;;;;4997194;28;20392;-71
2024/01/04 11:27:59;;;;;;;0.82;0.73;;;1.10;94.80;;;;;;4999285;28;20033;-70
2024/01/04 11:30:24;;;;;;;1.23;0.90;;;1.10;94.60;;;;;;4999974;28;20041;-70
2024/01/04 11:32:50;;;;;;;0.70;0.63;;;1.10;94.80;;;;;;4999931;28;20435;-70
2024/01/04 11:35:16;;;;;;;0.77;0.77;;;1.20;94.90;;;;;;4996854;28;20359;-71
2024/01/04 11:37:49;;;;;;;1.65;0.90;;;1.00;94.20;;;;;;4998196;28;20453;-71
2024/01/04 11:40:25;;;;;;;0.88;0.68;;;1.10;94.60;;;;;;4994333;28;20575;-71
2024/01/04 11:42:51;;;;;;;0.93;0.60;;;1.20;94.90;;;;;;4999221;28;20116;-71
2024/01/04 11:45:17;;;;;;;0.98;0.60;;;1.10;94.70;;;;;;4996308;28;20123;-72
2024/01/04 11:47:45;;;;;;;2.08;0.80;;;1.10;94.60;;;;;;5005732;28;20030;-72
2024/01/04 11:50:15;;;;;;;2.08;0.65;;;1.10;94.40;;;;;;5003727;28;20448;-71
2024/01/04 11:52:41;;;;;;;0.75;0.65;;;1.10;94.30;;;;;;5007018;28;20037;-79
2024/01/04 11:55:07;;;;;;;1.13;0.70;;;1.10;94.70;;;;;;5003591;28;20029;-72
2024/01/04 11:57:33;;;;;;;2.78;1.10;;;1.20;94.80;;;;;;4998809;28;20056;-71
2024/01/04 11:59:58;;;;;;;1.45;1.00;;;1.20;95.00;;;;;;5001573;28;20034;-71
2024/01/04 12:02:24;;;;;;;1.05;0.70;;;1.10;94.70;;;;;;4989299;28;20515;-72
2024/01/04 12:04:50;;;;;;;0.82;0.70;;;1.10;94.60;;;;;;4985858;28;20509;-71
2024/01/04 12:07:15;;;;;;;2.55;0.70;;;1.10;94.30;;;;;;5008186;28;20550;-71
2024/01/04 12:09:41;;;;;;;0.68;0.68;;;1.10;94.50;;;;;;5000973;28;20092;-72
2024/01/04 12:12:10;;;;;;;1.65;0.93;;;1.10;94.80;;;;;;5002711;28;20098;-72
2024/01/04 12:14:37;;;;;;;0.60;0.60;;;1.00;94.30;;;;;;4998286;28;20121;-71
2024/01/04 12:17:03;;;;;;;1.30;0.63;;;1.00;94.60;;;;;;5009306;28;20037;-71
2024/01/04 12:19:29;;;;;;;1.10;0.93;;;1.00;94.70;;;;;;5006385;28;20112;-72
2024/01/04 12:21:55;;;;;;;1.33;0.80;;;1.00;94.70;;;;;;5001218;28;20121;-71
2024/01/04 12:24:21;;;;;;;2.75;1.00;;;1.10;94.80;;;;;;5004417;28;20399;-71
2024/01/04 12:26:47;;;;;;;3.20;1.02;;;1.00;94.60;;;;;;5005335;28;20033;-74
2024/01/04 12:29:14;;;;;;;0.63;0.60;;;1.00;94.80;;;;;;4995280;28;20098;-71
2024/01/04 12:31:42;;;;;;;1.25;0.50;;;1.00;94.60;;;;;;5001375;28;20427;-72
2024/01/04 12:34:11;;;;;;;1.55;0.85;;;1.00;94.40;;;;;;4998403;28;20041;-70
2024/01/04 12:36:36;;;;;;;1.08;0.90;;;1.00;94.40;;;;;;4996785;28;20110;-70
2024/01/04 12:39:12;;;;;;;0.80;0.70;;;1.00;94.60;;;;;;4994513;28;20061;-71
2024/01/04 12:41:46;;;;;;;1.10;0.77;;;1.10;95.00;;;;;;5001315;28;20038;-74
2024/01/04 12:44:12;;;;;;;0.82;0.57;;;1.10;95.10;;;;;;4994968;28;20090;-72
2024/01/04 12:46:39;;;;;;;1.70;0.73;;;1.10;94.70;;;;;;4997434;28;20030;-71
2024/01/04 12:49:10;;;;;;;0.55;0.50;;;1.20;94.70;;;;;;4996119;28;20440;-72
2024/01/04 12:51:40;;;;;;;0.77;0.73;;;1.20;94.60;;;;;;4998133;28;20076;-72